sensor_id;sensor_type;location;lat;lon;timestamp;temperature;humidity
52859;DHT22;38721;53.098;6.596;2023-02-28T00:01:24;4.10;99.90
52859;DHT22;38721;53.098;6.596;2023-02-28T00:03:50;4.20;99.90
52859;DHT22;38721;53.098;6.596;2023-02-28T00:06:16;4.10;99.90
52859;DHT22;38721;53.098;6.596;2023-02-28T00:08:42;4.10;99.90
52859;DHT22;38721;53.098;6.596;2023-02-28T00:11:10;4.10;99.90
52859;DHT22;38721;53.098;6.596;2023-02-28T00:13:38;4.00;99.90
52859;DHT22;38721;53.098;6.596;2023-02-28T00:16:11;4.00;99.90
52859;DHT22;38721;53.098;6.596;2023-02-28T00:18:37;4.00;99.90
52859;DHT22;38721;53.098;6.596;2023-02-28T00:21:03;3.90;99.90
52859;DHT22;38721;53.098;6.596;2023-02-28T00:23:29;3.90;99.90
52859;DHT22;38721;53.098;6.596;2023-02-28T00:25:55;3.80;99.90
52859;DHT22;38721;53.098;6.596;2023-02-28T00:28:23;3.80;99.90
52859;DHT22;38721;53.098;6.596;2023-02-28T00:30:49;3.90;99.90
52859;DHT22;38721;53.098;6.596;2023-02-28T00:33:15;4.00;99.90
52859;DHT22;38721;53.098;6.596;2023-02-28T00:35:41;4.00;99.90
52859;DHT22;38721;53.098;6.596;2023-02-28T00:38:06;4.00;99.90
52859;DHT22;38721;53.098;6.596;2023-02-28T00:40:32;3.90;99.90
52859;DHT22;38721;53.098;6.596;2023-02-28T00:42:58;4.00;99.90
52859;DHT22;38721;53.098;6.596;2023-02-28T00:45:23;3.90;99.90
52859;DHT22;38721;53.098;6.596;2023-02-28T00:47:49;4.00;99.90
52859;DHT22;38721;53.098;6.596;2023-02-28T00:50:19;4.00;99.90
52859;DHT22;38721;53.098;6.596;2023-02-28T00:52:46;4.00;99.90
52859;DHT22;38721;53.098;6.596;2023-02-28T00:55:12;4.00;99.90
52859;DHT22;38721;53.098;6.596;2023-02-28T00:57:37;3.90;99.90
52859;DHT22;38721;53.098;6.596;2023-02-28T01:00:04;3.90;99.90
52859;DHT22;38721;53.098;6.596;2023-02-28T01:02:30;3.90;99.90
52859;DHT22;38721;53.098;6.596;2023-02-28T01:04:56;3.70;99.90
52859;DHT22;38721;53.098;6.596;2023-02-28T01:07:22;3.60;99.90
52859;DHT22;38721;53.098;6.596;2023-02-28T01:09:48;3.50;99.90
52859;DHT22;38721;53.098;6.596;2023-02-28T01:12:14;3.60;99.90
52859;DHT22;38721;53.098;6.596;2023-02-28T01:14:40;3.60;99.90
52859;DHT22;38721;53.098;6.596;2023-02-28T01:17:05;3.60;99.90
52859;DHT22;38721;53.098;6.596;2023-02-28T01:19:31;3.80;99.90
52859;DHT22;38721;53.098;6.596;2023-02-28T01:22:01;3.90;99.90
52859;DHT22;38721;53.098;6.596;2023-02-28T01:24:27;4.00;99.90
52859;DHT22;38721;53.098;6.596;2023-02-28T01:26:53;4.00;99.90
52859;DHT22;38721;53.098;6.596;2023-02-28T01:29:18;4.00;99.90
52859;DHT22;38721;53.098;6.596;2023-02-28T01:31:44;4.10;99.90
52859;DHT22;38721;53.098;6.596;2023-02-28T01:34:09;4.10;99.90
52859;DHT22;38721;53.098;6.596;2023-02-28T01:36:35;4.10;99.90
52859;DHT22;38721;53.098;6.596;2023-02-28T01:39:02;4.00;99.90
52859;DHT22;38721;53.098;6.596;2023-02-28T01:41:30;4.00;99.90
52859;DHT22;38721;53.098;6.596;2023-02-28T01:46:22;4.00;99.90
52859;DHT22;38721;53.098;6.596;2023-02-28T01:48:57;4.10;99.90
52859;DHT22;38721;53.098;6.596;2023-02-28T01:53:59;4.10;99.90
52859;DHT22;38721;53.098;6.596;2023-02-28T01:56:29;4.10;99.90
52859;DHT22;38721;53.098;6.596;2023-02-28T01:58:56;4.00;99.90
52859;DHT22;38721;53.098;6.596;2023-02-28T02:01:23;4.10;99.90
52859;DHT22;38721;53.098;6.596;2023-02-28T02:04:01;4.00;99.90
52859;DHT22;38721;53.098;6.596;2023-02-28T02:06:34;4.10;99.90
52859;DHT22;38721;53.098;6.596;2023-02-28T02:09:01;4.10;99.90
52859;DHT22;38721;53.098;6.596;2023-02-28T02:11:27;4.10;99.90
52859;DHT22;38721;53.098;6.596;2023-02-28T02:14:07;4.10;99.90
52859;DHT22;38721;53.098;6.596;2023-02-28T02:17:04;4.20;99.90
52859;DHT22;38721;53.098;6.596;2023-02-28T02:37:20;4.30;99.90
52859;DHT22;38721;53.098;6.596;2023-02-28T02:42:56;4.30;99.90
52859;DHT22;38721;53.098;6.596;2023-02-28T02:45:47;4.30;99.90
52859;DHT22;38721;53.098;6.596;2023-02-28T02:48:17;4.40;99.90
52859;DHT22;38721;53.098;6.596;2023-02-28T02:50:57;4.30;99.90
52859;DHT22;38721;53.098;6.596;2023-02-28T02:53:29;4.30;99.90
52859;DHT22;38721;53.098;6.596;2023-02-28T02:55:56;4.40;99.90
52859;DHT22;38721;53.098;6.596;2023-02-28T02:58:29;4.40;99.90
52859;DHT22;38721;53.098;6.596;2023-02-28T03:01:00;4.40;99.90
52859;DHT22;38721;53.098;6.596;2023-02-28T03:03:28;4.40;99.90
52859;DHT22;38721;53.098;6.596;2023-02-28T03:05:59;4.40;99.90
52859;DHT22;38721;53.098;6.596;2023-02-28T03:08:29;4.30;99.90
52859;DHT22;38721;53.098;6.596;2023-02-28T03:11:10;4.20;99.90
52859;DHT22;38721;53.098;6.596;2023-02-28T03:16:21;4.20;99.90
52859;DHT22;38721;53.098;6.596;2023-02-28T03:24:18;4.20;99.90
52859;DHT22;38721;53.098;6.596;2023-02-28T03:26:51;4.30;99.90
52859;DHT22;38721;53.098;6.596;2023-02-28T03:29:32;4.30;99.90
52859;DHT22;38721;53.098;6.596;2023-02-28T03:32:24;4.30;99.90
52859;DHT22;38721;53.098;6.596;2023-02-28T03:35:02;4.20;99.90
52859;DHT22;38721;53.098;6.596;2023-02-28T03:37:32;4.20;99.90
52859;DHT22;38721;53.098;6.596;2023-02-28T03:40:10;4.30;99.90
52859;DHT22;38721;53.098;6.596;2023-02-28T03:42:41;4.20;99.90
52859;DHT22;38721;53.098;6.596;2023-02-28T03:45:21;4.10;99.90
52859;DHT22;38721;53.098;6.596;2023-02-28T03:47:58;4.20;99.90
52859;DHT22;38721;53.098;6.596;2023-02-28T03:53:22;4.20;99.90
52859;DHT22;38721;53.098;6.596;2023-02-28T04:01:35;4.00;99.90
52859;DHT22;38721;53.098;6.596;2023-02-28T04:04:02;4.00;99.90
52859;DHT22;38721;53.098;6.596;2023-02-28T04:06:31;4.00;99.90
52859;DHT22;38721;53.098;6.596;2023-02-28T04:08:57;3.90;99.90
52859;DHT22;38721;53.098;6.596;2023-02-28T04:11:42;4.00;99.90
52859;DHT22;38721;53.098;6.596;2023-02-28T04:14:09;3.90;99.90
52859;DHT22;38721;53.098;6.596;2023-02-28T04:16:38;3.80;99.90
52859;DHT22;38721;53.098;6.596;2023-02-28T04:19:05;3.90;99.90
52859;DHT22;38721;53.098;6.596;2023-02-28T04:21:36;3.80;99.90
52859;DHT22;38721;53.098;6.596;2023-02-28T04:24:05;3.80;99.90
52859;DHT22;38721;53.098;6.596;2023-02-28T04:26:32;3.80;99.90
52859;DHT22;38721;53.098;6.596;2023-02-28T04:28:59;3.80;99.90
52859;DHT22;38721;53.098;6.596;2023-02-28T04:31:25;3.60;99.90
52859;DHT22;38721;53.098;6.596;2023-02-28T04:33:51;3.80;99.90
52859;DHT22;38721;53.098;6.596;2023-02-28T04:36:16;3.70;99.90
52859;DHT22;38721;53.098;6.596;2023-02-28T04:38:46;3.70;99.90
52859;DHT22;38721;53.098;6.596;2023-02-28T04:41:13;3.70;99.90
52859;DHT22;38721;53.098;6.596;2023-02-28T04:43:41;3.70;99.90
52859;DHT22;38721;53.098;6.596;2023-02-28T04:46:10;3.70;99.90
52859;DHT22;38721;53.098;6.596;2023-02-28T04:48:39;3.70;99.90
52859;DHT22;38721;53.098;6.596;2023-02-28T04:51:11;3.70;99.90
52859;DHT22;38721;53.098;6.596;2023-02-28T04:53:38;3.60;99.90
52859;DHT22;38721;53.098;6.596;2023-02-28T04:56:04;3.60;99.90
52859;DHT22;38721;53.098;6.596;2023-02-28T04:58:31;3.60;99.90
52859;DHT22;38721;53.098;6.596;2023-02-28T05:03:42;3.70;99.90
52859;DHT22;38721;53.098;6.596;2023-02-28T05:06:09;3.60;99.90
52859;DHT22;38721;53.098;6.596;2023-02-28T05:08:35;3.70;99.90
52859;DHT22;38721;53.098;6.596;2023-02-28T05:11:01;3.50;99.90
52859;DHT22;38721;53.098;6.596;2023-02-28T05:13:27;3.50;99.90
52859;DHT22;38721;53.098;6.596;2023-02-28T05:15:54;3.60;99.90
52859;DHT22;38721;53.098;6.596;2023-02-28T05:18:20;3.70;99.90
52859;DHT22;38721;53.098;6.596;2023-02-28T05:20:46;3.70;99.90
52859;DHT22;38721;53.098;6.596;2023-02-28T05:23:13;3.60;99.90
52859;DHT22;38721;53.098;6.596;2023-02-28T05:25:39;3.60;99.90
52859;DHT22;38721;53.098;6.596;2023-02-28T05:28:06;3.70;99.90
52859;DHT22;38721;53.098;6.596;2023-02-28T05:30:31;3.50;99.90
52859;DHT22;38721;53.098;6.596;2023-02-28T05:32:57;3.60;99.90
52859;DHT22;38721;53.098;6.596;2023-02-28T05:35:26;3.50;99.90
52859;DHT22;38721;53.098;6.596;2023-02-28T05:37:52;3.50;99.90
52859;DHT22;38721;53.098;6.596;2023-02-28T05:40:18;3.50;99.90
52859;DHT22;38721;53.098;6.596;2023-02-28T05:42:46;3.60;99.90
52859;DHT22;38721;53.098;6.596;2023-02-28T05:45:12;3.40;99.90
52859;DHT22;38721;53.098;6.596;2023-02-28T05:47:37;3.50;99.90
52859;DHT22;38721;53.098;6.596;2023-02-28T05:50:04;3.60;99.90
52859;DHT22;38721;53.098;6.596;2023-02-28T05:52:30;3.50;99.90
52859;DHT22;38721;53.098;6.596;2023-02-28T05:54:56;3.60;99.90
52859;DHT22;38721;53.098;6.596;2023-02-28T05:57:23;3.50;99.90
52859;DHT22;38721;53.098;6.596;2023-02-28T05:59:49;3.40;99.90
52859;DHT22;38721;53.098;6.596;2023-02-28T06:02:16;3.50;99.90
52859;DHT22;38721;53.098;6.596;2023-02-28T06:04:43;3.50;99.90
52859;DHT22;38721;53.098;6.596;2023-02-28T06:07:09;3.40;99.90
52859;DHT22;38721;53.098;6.596;2023-02-28T06:09:35;3.40;99.90
52859;DHT22;38721;53.098;6.596;2023-02-28T06:12:02;3.30;99.90
52859;DHT22;38721;53.098;6.596;2023-02-28T06:14:29;3.30;99.90
52859;DHT22;38721;53.098;6.596;2023-02-28T06:16:57;3.30;99.90
52859;DHT22;38721;53.098;6.596;2023-02-28T06:19:23;3.20;99.90
52859;DHT22;38721;53.098;6.596;2023-02-28T06:21:51;3.30;99.90
52859;DHT22;38721;53.098;6.596;2023-02-28T06:24:22;3.30;99.90
52859;DHT22;38721;53.098;6.596;2023-02-28T06:26:50;3.10;99.90
52859;DHT22;38721;53.098;6.596;2023-02-28T06:29:16;3.30;99.90
52859;DHT22;38721;53.098;6.596;2023-02-28T06:31:45;3.20;99.90
52859;DHT22;38721;53.098;6.596;2023-02-28T06:34:12;3.20;99.90
52859;DHT22;38721;53.098;6.596;2023-02-28T06:36:38;3.20;99.90
52859;DHT22;38721;53.098;6.596;2023-02-28T06:39:06;3.20;99.90
52859;DHT22;38721;53.098;6.596;2023-02-28T06:41:32;3.10;99.90
52859;DHT22;38721;53.098;6.596;2023-02-28T06:44:12;3.20;99.90
52859;DHT22;38721;53.098;6.596;2023-02-28T06:46:39;3.30;99.90
52859;DHT22;38721;53.098;6.596;2023-02-28T06:49:06;3.20;99.90
52859;DHT22;38721;53.098;6.596;2023-02-28T06:51:35;3.20;99.90
52859;DHT22;38721;53.098;6.596;2023-02-28T06:54:01;3.10;99.90
52859;DHT22;38721;53.098;6.596;2023-02-28T06:56:27;3.20;99.90
52859;DHT22;38721;53.098;6.596;2023-02-28T06:58:53;3.30;99.90
52859;DHT22;38721;53.098;6.596;2023-02-28T07:01:19;3.20;99.90
52859;DHT22;38721;53.098;6.596;2023-02-28T07:03:46;3.30;99.90
52859;DHT22;38721;53.098;6.596;2023-02-28T07:06:12;3.20;99.90
52859;DHT22;38721;53.098;6.596;2023-02-28T07:08:38;3.10;99.90
52859;DHT22;38721;53.098;6.596;2023-02-28T07:11:06;3.10;99.90
52859;DHT22;38721;53.098;6.596;2023-02-28T07:13:32;3.10;99.90
52859;DHT22;38721;53.098;6.596;2023-02-28T07:16:04;3.20;99.90
52859;DHT22;38721;53.098;6.596;2023-02-28T07:18:31;3.20;99.90
52859;DHT22;38721;53.098;6.596;2023-02-28T07:20:57;3.30;99.90
52859;DHT22;38721;53.098;6.596;2023-02-28T07:23:23;3.20;99.90
52859;DHT22;38721;53.098;6.596;2023-02-28T07:25:51;3.40;99.90
52859;DHT22;38721;53.098;6.596;2023-02-28T07:28:17;3.40;99.90
52859;DHT22;38721;53.098;6.596;2023-02-28T07:30:43;3.40;99.90
52859;DHT22;38721;53.098;6.596;2023-02-28T07:33:11;3.40;99.90
52859;DHT22;38721;53.098;6.596;2023-02-28T07:35:37;3.30;99.90
52859;DHT22;38721;53.098;6.596;2023-02-28T07:38:03;3.30;99.90
52859;DHT22;38721;53.098;6.596;2023-02-28T07:40:32;3.30;99.90
52859;DHT22;38721;53.098;6.596;2023-02-28T07:42:59;3.40;99.90
52859;DHT22;38721;53.098;6.596;2023-02-28T07:45:26;3.40;99.90
52859;DHT22;38721;53.098;6.596;2023-02-28T07:47:51;3.40;99.90
52859;DHT22;38721;53.098;6.596;2023-02-28T07:50:17;3.40;99.90
52859;DHT22;38721;53.098;6.596;2023-02-28T07:52:45;3.40;99.90
52859;DHT22;38721;53.098;6.596;2023-02-28T07:55:14;3.50;99.90
52859;DHT22;38721;53.098;6.596;2023-02-28T07:57:42;3.60;99.90
52859;DHT22;38721;53.098;6.596;2023-02-28T08:00:10;3.60;99.90
52859;DHT22;38721;53.098;6.596;2023-02-28T08:02:36;3.70;99.90
52859;DHT22;38721;53.098;6.596;2023-02-28T08:05:02;3.60;99.90
52859;DHT22;38721;53.098;6.596;2023-02-28T08:07:28;3.70;99.90
52859;DHT22;38721;53.098;6.596;2023-02-28T08:09:54;3.70;99.90
52859;DHT22;38721;53.098;6.596;2023-02-28T08:12:20;3.80;99.90
52859;DHT22;38721;53.098;6.596;2023-02-28T08:14:45;3.90;99.90
52859;DHT22;38721;53.098;6.596;2023-02-28T08:17:11;4.10;99.90
52859;DHT22;38721;53.098;6.596;2023-02-28T08:19:37;4.20;99.90
52859;DHT22;38721;53.098;6.596;2023-02-28T08:22:06;4.10;99.90
52859;DHT22;38721;53.098;6.596;2023-02-28T08:24:32;4.00;99.90
52859;DHT22;38721;53.098;6.596;2023-02-28T08:26:59;4.20;99.90
52859;DHT22;38721;53.098;6.596;2023-02-28T08:29:24;4.30;99.90
52859;DHT22;38721;53.098;6.596;2023-02-28T08:31:50;4.50;99.90
52859;DHT22;38721;53.098;6.596;2023-02-28T08:34:16;4.40;99.90
52859;DHT22;38721;53.098;6.596;2023-02-28T08:36:45;4.40;99.90
52859;DHT22;38721;53.098;6.596;2023-02-28T08:39:12;4.50;99.90
52859;DHT22;38721;53.098;6.596;2023-02-28T08:41:38;4.60;99.90
52859;DHT22;38721;53.098;6.596;2023-02-28T08:44:03;4.60;99.90
52859;DHT22;38721;53.098;6.596;2023-02-28T08:46:29;4.60;99.90
52859;DHT22;38721;53.098;6.596;2023-02-28T08:48:56;4.40;99.90
52859;DHT22;38721;53.098;6.596;2023-02-28T08:51:26;4.50;99.90
52859;DHT22;38721;53.098;6.596;2023-02-28T08:53:53;4.60;99.90
52859;DHT22;38721;53.098;6.596;2023-02-28T08:56:19;4.70;99.90
52859;DHT22;38721;53.098;6.596;2023-02-28T08:58:48;4.90;99.90
52859;DHT22;38721;53.098;6.596;2023-02-28T09:01:18;5.30;99.90
52859;DHT22;38721;53.098;6.596;2023-02-28T09:03:45;5.30;99.90
52859;DHT22;38721;53.098;6.596;2023-02-28T09:06:13;5.10;99.90
52859;DHT22;38721;53.098;6.596;2023-02-28T09:08:39;5.30;99.90
52859;DHT22;38721;53.098;6.596;2023-02-28T09:11:09;5.50;99.90
52859;DHT22;38721;53.098;6.596;2023-02-28T09:13:35;5.40;99.90
52859;DHT22;38721;53.098;6.596;2023-02-28T09:16:03;5.60;99.90
52859;DHT22;38721;53.098;6.596;2023-02-28T09:18:34;5.60;99.90
52859;DHT22;38721;53.098;6.596;2023-02-28T09:21:08;5.40;99.90
52859;DHT22;38721;53.098;6.596;2023-02-28T09:23:35;5.10;99.90
52859;DHT22;38721;53.098;6.596;2023-02-28T09:26:27;5.40;99.90
52859;DHT22;38721;53.098;6.596;2023-02-28T09:28:53;5.40;99.90
52859;DHT22;38721;53.098;6.596;2023-02-28T09:31:28;5.50;99.90
52859;DHT22;38721;53.098;6.596;2023-02-28T09:33:58;5.40;99.90
52859;DHT22;38721;53.098;6.596;2023-02-28T09:36:27;5.40;99.90
52859;DHT22;38721;53.098;6.596;2023-02-28T09:38:55;5.40;99.90
52859;DHT22;38721;53.098;6.596;2023-02-28T09:41:46;5.30;99.90
52859;DHT22;38721;53.098;6.596;2023-02-28T09:44:38;5.40;99.90
52859;DHT22;38721;53.098;6.596;2023-02-28T09:47:16;5.50;99.90
52859;DHT22;38721;53.098;6.596;2023-02-28T09:49:48;5.50;99.90
52859;DHT22;38721;53.098;6.596;2023-02-28T09:52:20;5.60;99.90
52859;DHT22;38721;53.098;6.596;2023-02-28T09:54:50;5.50;99.90
52859;DHT22;38721;53.098;6.596;2023-02-28T10:05:25;5.80;99.90
52859;DHT22;38721;53.098;6.596;2023-02-28T10:08:15;5.80;99.90
52859;DHT22;38721;53.098;6.596;2023-02-28T10:11:07;6.00;99.90
52859;DHT22;38721;53.098;6.596;2023-02-28T10:16:31;6.20;99.90
52859;DHT22;38721;53.098;6.596;2023-02-28T10:19:02;6.30;99.90
52859;DHT22;38721;53.098;6.596;2023-02-28T10:21:35;6.30;16.90
52859;DHT22;38721;53.098;6.596;2023-02-28T10:24:32;6.20;99.90
52859;DHT22;38721;53.098;6.596;2023-02-28T10:29:42;6.40;99.90
52859;DHT22;38721;53.098;6.596;2023-02-28T10:32:11;6.40;1.00
52859;DHT22;38721;53.098;6.596;2023-02-28T10:34:40;6.40;99.90
52859;DHT22;38721;53.098;6.596;2023-02-28T10:37:05;6.30;99.90
52859;DHT22;38721;53.098;6.596;2023-02-28T10:39:43;6.40;99.90
52859;DHT22;38721;53.098;6.596;2023-02-28T10:42:22;6.50;1.00
52859;DHT22;38721;53.098;6.596;2023-02-28T10:45:14;6.50;99.90
52859;DHT22;38721;53.098;6.596;2023-02-28T10:50:26;6.80;1.00
52859;DHT22;38721;53.098;6.596;2023-02-28T10:52:53;6.80;99.90
52859;DHT22;38721;53.098;6.596;2023-02-28T10:55:24;6.80;99.90
52859;DHT22;38721;53.098;6.596;2023-02-28T10:57:51;6.90;99.90
52859;DHT22;38721;53.098;6.596;2023-02-28T11:02:45;6.80;99.90
52859;DHT22;38721;53.098;6.596;2023-02-28T11:05:32;7.00;99.90
52859;DHT22;38721;53.098;6.596;2023-02-28T11:08:14;6.70;1.00
52859;DHT22;38721;53.098;6.596;2023-02-28T11:10:54;7.00;99.90
52859;DHT22;38721;53.098;6.596;2023-02-28T11:13:32;7.00;80.00
52859;DHT22;38721;53.098;6.596;2023-02-28T11:16:02;7.10;99.90
52859;DHT22;38721;53.098;6.596;2023-02-28T11:18:53;7.40;99.90
52859;DHT22;38721;53.098;6.596;2023-02-28T11:21:52;7.30;1.00
52859;DHT22;38721;53.098;6.596;2023-02-28T11:26:53;7.30;1.00
52859;DHT22;38721;53.098;6.596;2023-02-28T11:29:28;7.30;99.90
52859;DHT22;38721;53.098;6.596;2023-02-28T11:34:29;7.90;99.90
52859;DHT22;38721;53.098;6.596;2023-02-28T11:36:57;8.00;99.90
52859;DHT22;38721;53.098;6.596;2023-02-28T11:39:23;7.90;99.90
52859;DHT22;38721;53.098;6.596;2023-02-28T11:50:10;7.70;99.90
52859;DHT22;38721;53.098;6.596;2023-02-28T11:55:30;8.00;1.00
52859;DHT22;38721;53.098;6.596;2023-02-28T12:00:57;7.10;1.00
52859;DHT22;38721;53.098;6.596;2023-02-28T12:20:44;7.90;36.70
52859;DHT22;38721;53.098;6.596;2023-02-28T12:26:26;8.60;99.90
52859;DHT22;38721;53.098;6.596;2023-02-28T12:29:19;8.20;1.00
52859;DHT22;38721;53.098;6.596;2023-02-28T12:32:21;8.10;99.90
52859;DHT22;38721;53.098;6.596;2023-02-28T12:34:51;7.60;1.00
52859;DHT22;38721;53.098;6.596;2023-02-28T12:37:31;8.30;60.40
52859;DHT22;38721;53.098;6.596;2023-02-28T12:40:08;8.80;99.90
52859;DHT22;38721;53.098;6.596;2023-02-28T12:42:46;8.80;1.00
52859;DHT22;38721;53.098;6.596;2023-02-28T12:45:24;9.20;87.70
52859;DHT22;38721;53.098;6.596;2023-02-28T12:47:57;9.00;99.90
52859;DHT22;38721;53.098;6.596;2023-02-28T12:50:24;9.30;1.00
52859;DHT22;38721;53.098;6.596;2023-02-28T12:53:01;9.60;1.00
52859;DHT22;38721;53.098;6.596;2023-02-28T12:55:41;9.10;99.90
52859;DHT22;38721;53.098;6.596;2023-02-28T12:58:24;9.60;99.90
52859;DHT22;38721;53.098;6.596;2023-02-28T13:06:58;9.70;99.90
52859;DHT22;38721;53.098;6.596;2023-02-28T13:09:25;10.00;99.90
52859;DHT22;38721;53.098;6.596;2023-02-28T13:11:53;10.00;99.90
52859;DHT22;38721;53.098;6.596;2023-02-28T13:17:23;10.20;99.90
52859;DHT22;38721;53.098;6.596;2023-02-28T13:27:53;10.40;99.90
52859;DHT22;38721;53.098;6.596;2023-02-28T13:38:44;9.80;99.90
52859;DHT22;38721;53.098;6.596;2023-02-28T13:44:21;10.40;1.00
52859;DHT22;38721;53.098;6.596;2023-02-28T13:49:33;10.70;1.00
52859;DHT22;38721;53.098;6.596;2023-02-28T13:59:51;11.00;99.90
52859;DHT22;38721;53.098;6.596;2023-02-28T14:05:19;10.70;99.90
52859;DHT22;38721;53.098;6.596;2023-02-28T14:07:56;10.80;99.90
52859;DHT22;38721;53.098;6.596;2023-02-28T14:10:25;11.30;99.90
52859;DHT22;38721;53.098;6.596;2023-02-28T14:12:59;11.40;99.90
52859;DHT22;38721;53.098;6.596;2023-02-28T14:29:43;13.80;99.90
52859;DHT22;38721;53.098;6.596;2023-02-28T14:32:40;14.70;99.90
52859;DHT22;38721;53.098;6.596;2023-02-28T14:35:54;14.90;99.90
52859;DHT22;38721;53.098;6.596;2023-02-28T14:41:31;16.50;99.90
52859;DHT22;38721;53.098;6.596;2023-02-28T14:43:58;16.70;99.90
52859;DHT22;38721;53.098;6.596;2023-02-28T14:46:36;16.90;99.90
52859;DHT22;38721;53.098;6.596;2023-02-28T14:49:05;17.30;99.90
52859;DHT22;38721;53.098;6.596;2023-02-28T14:51:33;15.00;1.00
52859;DHT22;38721;53.098;6.596;2023-02-28T14:54:03;13.40;99.90
52859;DHT22;38721;53.098;6.596;2023-02-28T14:56:38;13.00;99.90
52859;DHT22;38721;53.098;6.596;2023-02-28T14:59:18;12.10;99.90
52859;DHT22;38721;53.098;6.596;2023-02-28T15:01:48;13.60;99.90
52859;DHT22;38721;53.098;6.596;2023-02-28T15:04:24;14.90;99.90
52859;DHT22;38721;53.098;6.596;2023-02-28T15:10:24;15.10;99.90
52859;DHT22;38721;53.098;6.596;2023-02-28T15:15:48;13.50;99.90
52859;DHT22;38721;53.098;6.596;2023-02-28T15:18:23;13.40;99.90
52859;DHT22;38721;53.098;6.596;2023-02-28T15:20:51;13.20;99.90
52859;DHT22;38721;53.098;6.596;2023-02-28T15:23:19;13.00;99.90
52859;DHT22;38721;53.098;6.596;2023-02-28T15:25:46;12.90;99.90
52859;DHT22;38721;53.098;6.596;2023-02-28T15:28:16;12.90;99.90
52859;DHT22;38721;53.098;6.596;2023-02-28T15:31:02;12.90;99.90
52859;DHT22;38721;53.098;6.596;2023-02-28T15:33:32;12.90;99.90
52859;DHT22;38721;53.098;6.596;2023-02-28T15:36:16;13.20;99.90
52859;DHT22;38721;53.098;6.596;2023-02-28T15:38:51;14.60;99.90
52859;DHT22;38721;53.098;6.596;2023-02-28T15:41:29;14.40;99.90
52859;DHT22;38721;53.098;6.596;2023-02-28T15:44:17;14.70;99.90
52859;DHT22;38721;53.098;6.596;2023-02-28T15:47:17;14.30;99.90
52859;DHT22;38721;53.098;6.596;2023-02-28T15:50:02;14.20;99.90
52859;DHT22;38721;53.098;6.596;2023-02-28T15:55:19;15.90;99.90
52859;DHT22;38721;53.098;6.596;2023-02-28T15:57:47;15.00;99.90
52859;DHT22;38721;53.098;6.596;2023-02-28T16:00:18;14.00;97.50
52859;DHT22;38721;53.098;6.596;2023-02-28T16:02:44;12.80;1.00
52859;DHT22;38721;53.098;6.596;2023-02-28T16:05:27;12.80;1.00
52859;DHT22;38721;53.098;6.596;2023-02-28T16:07:54;14.30;95.00
52859;DHT22;38721;53.098;6.596;2023-02-28T16:10:21;14.80;99.90
52859;DHT22;38721;53.098;6.596;2023-02-28T16:12:52;14.80;99.90
52859;DHT22;38721;53.098;6.596;2023-02-28T16:17:45;15.10;95.20
52859;DHT22;38721;53.098;6.596;2023-02-28T16:20:28;14.70;66.90
52859;DHT22;38721;53.098;6.596;2023-02-28T16:22:54;14.30;3.60
52859;DHT22;38721;53.098;6.596;2023-02-28T16:25:23;12.50;1.00
52859;DHT22;38721;53.098;6.596;2023-02-28T16:27:53;12.30;1.00
52859;DHT22;38721;53.098;6.596;2023-02-28T16:30:24;11.80;1.00
52859;DHT22;38721;53.098;6.596;2023-02-28T16:32:53;10.70;99.90
52859;DHT22;38721;53.098;6.596;2023-02-28T16:35:20;10.10;99.90
52859;DHT22;38721;53.098;6.596;2023-02-28T16:37:46;9.50;99.90
52859;DHT22;38721;53.098;6.596;2023-02-28T16:40:17;9.30;99.90
52859;DHT22;38721;53.098;6.596;2023-02-28T16:42:44;8.90;99.90
52859;DHT22;38721;53.098;6.596;2023-02-28T16:45:20;8.60;99.90
52859;DHT22;38721;53.098;6.596;2023-02-28T16:47:47;8.20;99.90
52859;DHT22;38721;53.098;6.596;2023-02-28T16:50:22;7.90;99.90
52859;DHT22;38721;53.098;6.596;2023-02-28T16:52:48;7.60;99.90
52859;DHT22;38721;53.098;6.596;2023-02-28T16:55:15;7.40;99.90
52859;DHT22;38721;53.098;6.596;2023-02-28T16:57:41;7.20;99.90
52859;DHT22;38721;53.098;6.596;2023-02-28T17:00:12;7.10;1.00
52859;DHT22;38721;53.098;6.596;2023-02-28T17:02:39;6.90;3.00
52859;DHT22;38721;53.098;6.596;2023-02-28T17:05:05;6.80;62.70
52859;DHT22;38721;53.098;6.596;2023-02-28T17:07:32;6.60;27.50
52859;DHT22;38721;53.098;6.596;2023-02-28T17:09:58;6.30;1.00
52859;DHT22;38721;53.098;6.596;2023-02-28T17:12:24;6.20;27.10
52859;DHT22;38721;53.098;6.596;2023-02-28T17:14:50;5.90;99.90
52859;DHT22;38721;53.098;6.596;2023-02-28T17:17:19;5.80;99.90
52859;DHT22;38721;53.098;6.596;2023-02-28T17:19:46;5.60;99.90
52859;DHT22;38721;53.098;6.596;2023-02-28T17:22:12;5.50;99.90
52859;DHT22;38721;53.098;6.596;2023-02-28T17:24:41;5.40;99.90
52859;DHT22;38721;53.098;6.596;2023-02-28T17:27:11;5.20;99.90
52859;DHT22;38721;53.098;6.596;2023-02-28T17:29:37;5.00;99.90
52859;DHT22;38721;53.098;6.596;2023-02-28T17:32:02;4.90;99.90
52859;DHT22;38721;53.098;6.596;2023-02-28T17:34:28;4.90;99.90
52859;DHT22;38721;53.098;6.596;2023-02-28T17:36:54;4.90;99.90
52859;DHT22;38721;53.098;6.596;2023-02-28T17:39:20;4.80;99.90
52859;DHT22;38721;53.098;6.596;2023-02-28T17:41:58;4.70;99.90
52859;DHT22;38721;53.098;6.596;2023-02-28T17:44:27;4.50;99.90
52859;DHT22;38721;53.098;6.596;2023-02-28T17:46:54;4.20;1.00
52859;DHT22;38721;53.098;6.596;2023-02-28T17:49:20;4.20;1.00
52859;DHT22;38721;53.098;6.596;2023-02-28T17:51:46;4.10;52.00
52859;DHT22;38721;53.098;6.596;2023-02-28T17:54:13;4.10;99.90
52859;DHT22;38721;53.098;6.596;2023-02-28T17:56:39;4.10;92.10
52859;DHT22;38721;53.098;6.596;2023-02-28T17:59:05;4.10;99.90
52859;DHT22;38721;53.098;6.596;2023-02-28T18:01:31;4.00;99.90
52859;DHT22;38721;53.098;6.596;2023-02-28T18:03:57;3.70;99.90
52859;DHT22;38721;53.098;6.596;2023-02-28T18:06:24;3.60;99.90
52859;DHT22;38721;53.098;6.596;2023-02-28T18:08:50;3.60;99.90
52859;DHT22;38721;53.098;6.596;2023-02-28T18:11:20;3.60;99.90
52859;DHT22;38721;53.098;6.596;2023-02-28T18:13:53;3.50;99.90
52859;DHT22;38721;53.098;6.596;2023-02-28T18:16:19;3.40;99.90
52859;DHT22;38721;53.098;6.596;2023-02-28T18:18:47;3.30;1.00
52859;DHT22;38721;53.098;6.596;2023-02-28T18:21:14;3.20;30.80
52859;DHT22;38721;53.098;6.596;2023-02-28T18:23:41;3.20;68.00
52859;DHT22;38721;53.098;6.596;2023-02-28T18:26:13;3.20;85.50
52859;DHT22;38721;53.098;6.596;2023-02-28T18:28:39;3.10;99.90
52859;DHT22;38721;53.098;6.596;2023-02-28T18:31:08;3.00;99.90
52859;DHT22;38721;53.098;6.596;2023-02-28T18:33:36;2.90;99.90
52859;DHT22;38721;53.098;6.596;2023-02-28T18:36:02;2.90;1.00
52859;DHT22;38721;53.098;6.596;2023-02-28T18:38:28;2.90;45.30
52859;DHT22;38721;53.098;6.596;2023-02-28T18:41:02;2.80;99.90
52859;DHT22;38721;53.098;6.596;2023-02-28T18:43:30;2.70;99.90
52859;DHT22;38721;53.098;6.596;2023-02-28T18:45:56;2.60;1.00
52859;DHT22;38721;53.098;6.596;2023-02-28T18:48:22;2.50;27.30
52859;DHT22;38721;53.098;6.596;2023-02-28T18:50:51;2.40;99.90
52859;DHT22;38721;53.098;6.596;2023-02-28T18:53:17;2.20;99.90
52859;DHT22;38721;53.098;6.596;2023-02-28T18:55:44;2.10;99.90
52859;DHT22;38721;53.098;6.596;2023-02-28T18:58:12;2.00;17.50